Time;durP1;ratioP1;P1;durP2;ratioP2;P2;SDS_P1;SDS_P2;PMS_P1;PMS_P2;Temp;Humidity;BMP_temperature;BMP_pressure;BME280_temperature;BME280_humidity;BME280_pressure;Samples;Min_cycle;Max_cycle;Signal;HPM_P1;HPM_P2
2023/09/04 00:00:32;;;;;;;5.63;4.47;;;;;;;;;;5058791;28;20169;-55
2023/09/04 00:02:58;;;;;;;6.73;4.37;;;;;;;;;;5058809;28;20619;-51
2023/09/04 00:05:24;;;;;;;4.67;4.20;;;;;;;;;;5076089;28;20176;-50
2023/09/04 00:07:50;;;;;;;5.13;4.07;;;;;;;;;;5076583;28;20223;-50
2023/09/04 00:10:19;;;;;;;5.37;4.33;;;;;;;;;;5058454;28;20656;-50
2023/09/04 00:12:45;;;;;;;5.37;4.73;;;;;;;;;;5058028;28;20180;-53
2023/09/04 00:15:11;;;;;;;5.47;4.40;;;;;;;;;;5058208;28;20196;-51
2023/09/04 00:17:37;;;;;;;5.43;4.80;;;;;;;;;;5056915;28;20534;-50
2023/09/04 00:20:03;;;;;;;6.60;4.60;;;;;;;;;;5052829;28;20172;-50
2023/09/04 00:22:30;;;;;;;8.17;5.23;;;;;;;;;;5053194;28;20203;-48
2023/09/04 00:24:56;;;;;;;6.63;4.63;;;;;;;;;;5071589;28;20304;-49
2023/09/04 00:27:23;;;;;;;5.10;4.53;;;;;;;;;;5053219;28;20369;-49
2023/09/04 00:29:49;;;;;;;4.97;4.47;;;;;;;;;;5053565;28;20631;-51
2023/09/04 00:32:15;;;;;;;5.13;4.13;;;;;;;;;;5053456;28;20339;-47
2023/09/04 00:34:41;;;;;;;6.97;4.50;;;;;;;;;;5054518;28;20538;-51
2023/09/04 00:37:09;;;;;;;5.77;4.43;;;;;;;;;;5054164;28;20200;-50
2023/09/04 00:39:35;;;;;;;6.60;4.60;;;;;;;;;;5053959;28;20384;-48
2023/09/04 00:42:01;;;;;;;6.20;4.53;;;;;;;;;;5070834;28;20180;-51
2023/09/04 00:44:27;;;;;;;4.77;3.70;;;;;;;;;;5053404;28;20173;-48
2023/09/04 00:46:54;;;;;;;6.23;4.10;;;;;;;;;;5054743;28;20169;-51
2023/09/04 00:49:20;;;;;;;4.47;4.07;;;;;;;;;;5072563;28;20200;-48
2023/09/04 00:51:46;;;;;;;4.90;4.10;;;;;;;;;;5071713;28;20165;-49
2023/09/04 00:54:14;;;;;;;6.17;4.77;;;;;;;;;;5053087;28;20183;-53
2023/09/04 00:56:40;;;;;;;6.70;4.33;;;;;;;;;;5052315;28;20193;-49
2023/09/04 00:59:06;;;;;;;5.30;4.20;;;;;;;;;;5052595;28;20271;-53
2023/09/04 01:01:32;;;;;;;5.40;4.20;;;;;;;;;;5070594;28;20176;-51
2023/09/04 01:03:59;;;;;;;7.10;4.07;;;;;;;;;;5068858;28;20278;-49
2023/09/04 01:06:24;;;;;;;5.23;3.93;;;;;;;;;;5053438;28;20177;-50
2023/09/04 01:08:51;;;;;;;4.67;4.03;;;;;;;;;;5055091;28;20208;-47
2023/09/04 01:11:26;;;;;;;5.70;4.23;;;;;;;;;;5054125;28;20541;-50
2023/09/04 01:13:53;;;;;;;5.23;3.90;;;;;;;;;;5054668;28;20168;-49
2023/09/04 01:16:19;;;;;;;6.07;4.13;;;;;;;;;;5072068;28;20471;-49
2023/09/04 01:18:46;;;;;;;5.10;3.67;;;;;;;;;;5055827;28;20181;-48
2023/09/04 01:21:12;;;;;;;6.03;4.00;;;;;;;;;;5058233;28;20723;-54
2023/09/04 01:23:38;;;;;;;5.17;3.47;;;;;;;;;;5056833;28;20168;-47
2023/09/04 01:26:13;;;;;;;5.53;4.07;;;;;;;;;;5073858;28;20180;-51
2023/09/04 01:28:43;;;;;;;4.10;3.70;;;;;;;;;;5056435;28;20196;-50
2023/09/04 01:31:12;;;;;;;4.43;3.43;;;;;;;;;;5069015;28;20280;-50
2023/09/04 01:33:40;;;;;;;5.40;3.57;;;;;;;;;;5073451;28;20271;-48
2023/09/04 01:36:06;;;;;;;4.63;3.40;;;;;;;;;;5074254;28;20165;-50
2023/09/04 01:38:34;;;;;;;6.23;3.50;;;;;;;;;;5074376;28;20169;-50
2023/09/04 01:41:04;;;;;;;7.30;3.60;;;;;;;;;;5074798;28;20176;-53
2023/09/04 01:43:30;;;;;;;5.73;4.03;;;;;;;;;;5074075;28;20177;-48
2023/09/04 01:45:56;;;;;;;5.00;3.50;;;;;;;;;;5074148;28;20394;-50
2023/09/04 01:48:22;;;;;;;3.63;3.00;;;;;;;;;;5074521;28;20181;-48
2023/09/04 01:50:49;;;;;;;6.07;4.10;;;;;;;;;;5074913;28;20201;-48
2023/09/04 01:53:15;;;;;;;6.33;3.10;;;;;;;;;;5073772;28;20173;-49
2023/09/04 01:55:41;;;;;;;4.83;3.80;;;;;;;;;;5073956;28;20457;-50
2023/09/04 01:58:07;;;;;;;4.83;3.53;;;;;;;;;;5074641;28;20175;-50
2023/09/04 02:00:33;;;;;;;4.47;3.13;;;;;;;;;;5073320;28;20176;-48
2023/09/04 02:02:59;;;;;;;5.57;3.37;;;;;;;;;;5073666;28;20212;-50
2023/09/04 02:05:25;;;;;;;4.70;3.43;;;;;;;;;;5075476;28;20168;-51
2023/09/04 02:07:51;;;;;;;9.40;3.83;;;;;;;;;;5074626;28;20191;-48
2023/09/04 02:10:17;;;;;;;6.77;4.03;;;;;;;;;;5075321;28;20212;-47
2023/09/04 02:12:45;;;;;;;4.70;3.50;;;;;;;;;;5075477;28;20563;-50
2023/09/04 02:15:12;;;;;;;3.90;3.50;;;;;;;;;;5074152;28;20515;-50
2023/09/04 02:17:38;;;;;;;4.20;3.77;;;;;;;;;;5072619;28;20538;-49
2023/09/04 02:20:05;;;;;;;6.40;3.57;;;;;;;;;;5072194;28;20177;-50
2023/09/04 02:22:31;;;;;;;6.90;3.67;;;;;;;;;;5072459;28;20276;-48
2023/09/04 02:24:56;;;;;;;4.43;3.77;;;;;;;;;;5072557;28;20219;-49
2023/09/04 02:27:22;;;;;;;4.77;2.80;;;;;;;;;;5072462;28;20194;-47
2023/09/04 02:29:48;;;;;;;3.47;3.00;;;;;;;;;;5070001;28;20251;-50
2023/09/04 02:32:14;;;;;;;5.77;3.40;;;;;;;;;;5074218;28;20176;-50
2023/09/04 02:34:40;;;;;;;4.50;3.70;;;;;;;;;;5057333;28;20562;-48
2023/09/04 02:37:06;;;;;;;4.80;3.53;;;;;;;;;;5057668;28;20169;-52
2023/09/04 02:39:36;;;;;;;4.37;3.73;;;;;;;;;;5056664;28;20517;-52
2023/09/04 02:42:02;;;;;;;3.90;3.40;;;;;;;;;;5073630;28;20172;-53
2023/09/04 02:44:29;;;;;;;4.27;3.30;;;;;;;;;;5055748;28;20176;-51
2023/09/04 02:46:55;;;;;;;4.83;3.53;;;;;;;;;;5073926;28;20175;-48
2023/09/04 02:49:21;;;;;;;5.50;3.90;;;;;;;;;;5056462;28;20204;-48
2023/09/04 02:51:47;;;;;;;8.40;3.70;;;;;;;;;;5056291;28;20230;-50
2023/09/04 02:54:13;;;;;;;8.03;3.97;;;;;;;;;;5055891;28;20184;-53
2023/09/04 02:56:39;;;;;;;3.77;3.20;;;;;;;;;;5055431;28;20255;-47
2023/09/04 02:59:07;;;;;;;6.63;3.63;;;;;;;;;;5055086;28;20219;-51
2023/09/04 03:01:34;;;;;;;3.57;3.23;;;;;;;;;;5053229;28;20187;-50
2023/09/04 03:04:00;;;;;;;5.33;3.57;;;;;;;;;;5054250;28;20246;-50
2023/09/04 03:06:27;;;;;;;3.83;3.07;;;;;;;;;;5072892;28;20620;-53
2023/09/04 03:08:52;;;;;;;4.43;3.60;;;;;;;;;;5056812;28;20228;-52
2023/09/04 03:11:19;;;;;;;5.80;3.40;;;;;;;;;;5056353;28;20275;-51
2023/09/04 03:13:45;;;;;;;5.83;3.40;;;;;;;;;;5073250;28;20161;-50
2023/09/04 03:16:11;;;;;;;4.67;3.87;;;;;;;;;;5049956;28;20236;-49
2023/09/04 03:18:38;;;;;;;4.13;3.70;;;;;;;;;;5050213;28;20181;-51
2023/09/04 03:21:05;;;;;;;6.03;3.60;;;;;;;;;;5071327;28;20671;-51
2023/09/04 03:23:32;;;;;;;4.27;3.27;;;;;;;;;;5055029;28;20176;-49
2023/09/04 03:26:03;;;;;;;3.93;3.53;;;;;;;;;;5054780;28;20207;-52
2023/09/04 03:28:29;;;;;;;3.90;3.50;;;;;;;;;;5055489;28;20241;-48
2023/09/04 03:30:55;;;;;;;5.63;3.83;;;;;;;;;;5054985;28;20224;-50
2023/09/04 03:33:21;;;;;;;5.27;3.40;;;;;;;;;;5054355;28;20537;-47
2023/09/04 03:35:47;;;;;;;6.07;3.67;;;;;;;;;;5054204;28;20541;-52
2023/09/04 03:38:13;;;;;;;5.33;3.53;;;;;;;;;;5072406;28;20177;-52
2023/09/04 03:40:39;;;;;;;6.30;3.67;;;;;;;;;;5055080;28;20176;-50
2023/09/04 03:43:06;;;;;;;7.13;3.80;;;;;;;;;;5054305;28;20188;-53
2023/09/04 03:45:33;;;;;;;4.10;3.40;;;;;;;;;;5055087;28;20181;-50
2023/09/04 03:48:00;;;;;;;5.27;3.77;;;;;;;;;;5073669;28;20235;-52
2023/09/04 03:50:26;;;;;;;5.47;3.40;;;;;;;;;;5073131;28;20669;-50
2023/09/04 03:52:52;;;;;;;5.03;4.10;;;;;;;;;;5054760;28;20245;-53
2023/09/04 03:55:18;;;;;;;4.27;3.50;;;;;;;;;;5075873;28;20576;-47
2023/09/04 03:57:46;;;;;;;5.33;4.00;;;;;;;;;;5059579;28;20168;-50
2023/09/04 04:00:16;;;;;;;4.57;3.20;;;;;;;;;;5076708;28;20192;-49
2023/09/04 04:02:43;;;;;;;7.33;3.50;;;;;;;;;;5059298;28;20181;-48
2023/09/04 04:05:09;;;;;;;4.83;3.73;;;;;;;;;;5059412;28;20173;-48
2023/09/04 04:07:35;;;;;;;4.50;3.70;;;;;;;;;;5058739;28;20402;-50
2023/09/04 04:10:11;;;;;;;4.87;3.10;;;;;;;;;;5076934;28;20824;-51
2023/09/04 04:12:37;;;;;;;3.83;3.50;;;;;;;;;;5059396;28;20430;-50
2023/09/04 04:15:06;;;;;;;6.50;3.57;;;;;;;;;;5059754;28;20172;-50
2023/09/04 04:17:32;;;;;;;7.30;4.17;;;;;;;;;;5059237;28;20593;-49
2023/09/04 04:19:58;;;;;;;4.70;3.97;;;;;;;;;;5059269;28;20203;-52
2023/09/04 04:22:24;;;;;;;4.30;3.90;;;;;;;;;;5058713;28;20476;-48
2023/09/04 04:24:50;;;;;;;5.27;3.83;;;;;;;;;;5059127;28;20553;-49
2023/09/04 04:27:17;;;;;;;8.07;4.67;;;;;;;;;;5058779;28;20246;-53
2023/09/04 04:29:46;;;;;;;4.67;3.57;;;;;;;;;;5076426;28;20236;-47
2023/09/04 04:32:12;;;;;;;7.80;4.03;;;;;;;;;;5057934;28;20611;-53
2023/09/04 04:34:40;;;;;;;9.17;4.70;;;;;;;;;;5058436;28;20670;-48
2023/09/04 04:37:06;;;;;;;5.60;3.83;;;;;;;;;;5057503;28;20184;-50
2023/09/04 04:39:32;;;;;;;4.27;3.70;;;;;;;;;;5057128;28;20228;-52
2023/09/04 04:41:58;;;;;;;6.73;4.33;;;;;;;;;;5058478;28;20285;-49
2023/09/04 04:44:24;;;;;;;4.30;3.63;;;;;;;;;;5056957;28;20180;-53
2023/09/04 04:46:50;;;;;;;7.10;3.87;;;;;;;;;;5055351;28;20184;-49
2023/09/04 04:49:23;;;;;;;5.33;4.10;;;;;;;;;;5055944;28;20295;-49
2023/09/04 04:51:49;;;;;;;7.87;4.40;;;;;;;;;;5055221;28;20183;-53
2023/09/04 04:54:15;;;;;;;6.23;3.90;;;;;;;;;;5054109;28;20556;-51
2023/09/04 04:56:41;;;;;;;11.37;4.93;;;;;;;;;;5070561;28;20564;-51
2023/09/04 04:59:08;;;;;;;5.67;4.23;;;;;;;;;;5071519;28;20177;-48
2023/09/04 05:01:34;;;;;;;8.07;4.13;;;;;;;;;;5055639;28;20177;-49
2023/09/04 05:04:00;;;;;;;8.23;4.40;;;;;;;;;;5073438;28;20177;-49
2023/09/04 05:06:26;;;;;;;6.83;4.00;;;;;;;;;;5055213;28;20169;-51
2023/09/04 05:08:52;;;;;;;6.30;4.07;;;;;;;;;;5056510;28;20314;-49
2023/09/04 05:11:18;;;;;;;6.73;3.97;;;;;;;;;;5073955;28;20256;-51
2023/09/04 05:13:44;;;;;;;6.87;4.60;;;;;;;;;;5052080;28;20316;-48
2023/09/04 05:16:10;;;;;;;6.07;4.13;;;;;;;;;;5048420;28;20176;-51
2023/09/04 05:18:36;;;;;;;4.63;4.20;;;;;;;;;;5050422;28;20185;-49
2023/09/04 05:21:06;;;;;;;5.17;3.67;;;;;;;;;;5054766;28;20254;-50
2023/09/04 05:23:32;;;;;;;7.17;3.97;;;;;;;;;;5054885;28;20173;-52
2023/09/04 05:25:58;;;;;;;7.50;4.10;;;;;;;;;;5072147;28;20289;-48
2023/09/04 05:28:24;;;;;;;7.23;4.40;;;;;;;;;;5071555;28;20164;-50
2023/09/04 05:30:50;;;;;;;5.70;4.60;;;;;;;;;;5054140;28;20286;-48
2023/09/04 05:33:16;;;;;;;6.00;3.77;;;;;;;;;;5053387;28;20176;-49
2023/09/04 05:35:42;;;;;;;3.87;3.47;;;;;;;;;;5052954;28;20260;-49
2023/09/04 05:38:08;;;;;;;5.77;4.40;;;;;;;;;;5052194;28;20236;-48
2023/09/04 05:40:34;;;;;;;4.83;4.30;;;;;;;;;;5051595;28;20212;-50
2023/09/04 05:43:00;;;;;;;7.80;4.63;;;;;;;;;;5052199;28;20287;-49
2023/09/04 05:45:27;;;;;;;6.70;4.50;;;;;;;;;;5068160;28;20237;-50
2023/09/04 05:47:53;;;;;;;7.07;4.67;;;;;;;;;;5050544;28;20185;-47
2023/09/04 05:50:19;;;;;;;10.80;5.97;;;;;;;;;;5046797;28;20440;-49
2023/09/04 05:52:45;;;;;;;6.40;5.10;;;;;;;;;;5062653;28;20270;-47
2023/09/04 05:55:11;;;;;;;7.47;5.10;;;;;;;;;;5063186;28;20319;-50
2023/09/04 05:57:37;;;;;;;7.10;5.13;;;;;;;;;;5043642;28;20169;-52
2023/09/04 06:00:07;;;;;;;8.30;4.77;;;;;;;;;;5060418;28;20246;-48
2023/09/04 06:02:33;;;;;;;7.97;5.30;;;;;;;;;;5042973;28;20173;-47
2023/09/04 06:04:59;;;;;;;6.47;4.53;;;;;;;;;;5039917;28;20358;-47
2023/09/04 06:07:25;;;;;;;5.33;4.33;;;;;;;;;;5040400;28;20537;-52
2023/09/04 06:09:51;;;;;;;8.77;4.90;;;;;;;;;;5039348;28;20204;-48
2023/09/04 06:12:17;;;;;;;8.23;5.27;;;;;;;;;;5058264;28;20670;-48
2023/09/04 06:14:43;;;;;;;9.43;6.07;;;;;;;;;;5041626;28;20177;-50
2023/09/04 06:17:09;;;;;;;12.03;6.10;;;;;;;;;;5046787;28;20188;-53
2023/09/04 06:19:35;;;;;;;6.77;5.33;;;;;;;;;;5051821;28;20176;-52
2023/09/04 06:22:01;;;;;;;4.80;4.23;;;;;;;;;;5051326;28;20229;-50
2023/09/04 06:24:27;;;;;;;6.57;5.43;;;;;;;;;;5052474;28;20176;-49
2023/09/04 06:26:53;;;;;;;8.67;5.63;;;;;;;;;;5054020;28;20182;-51
2023/09/04 06:29:19;;;;;;;9.47;5.87;;;;;;;;;;5051518;28;20196;-50
2023/09/04 06:31:46;;;;;;;7.80;5.37;;;;;;;;;;5051592;28;20183;-52
2023/09/04 06:34:13;;;;;;;8.13;5.50;;;;;;;;;;5068202;28;20750;-49
2023/09/04 06:36:39;;;;;;;7.87;5.57;;;;;;;;;;5050646;28;20412;-50
2023/09/04 06:39:06;;;;;;;7.70;4.83;;;;;;;;;;5068167;28;20556;-48
2023/09/04 06:41:34;;;;;;;9.47;5.20;;;;;;;;;;5068668;28;20418;-52
2023/09/04 06:44:02;;;;;;;9.00;5.33;;;;;;;;;;5068691;28;20169;-50
2023/09/04 06:46:28;;;;;;;7.77;5.67;;;;;;;;;;5051319;28;20239;-51
2023/09/04 06:48:54;;;;;;;10.40;5.93;;;;;;;;;;5050725;28;20538;-48
2023/09/04 06:51:21;;;;;;;9.77;5.83;;;;;;;;;;5049879;28;20320;-49
2023/09/04 06:53:47;;;;;;;10.00;6.57;;;;;;;;;;5050261;28;20180;-54
2023/09/04 06:56:14;;;;;;;10.33;5.97;;;;;;;;;;5049185;28;20169;-48
2023/09/04 06:58:40;;;;;;;11.80;6.90;;;;;;;;;;5048982;28;20200;-50
2023/09/04 07:01:08;;;;;;;15.90;6.23;;;;;;;;;;5047799;28;20200;-50
2023/09/04 07:03:34;;;;;;;6.53;5.77;;;;;;;;;;5048417;28;20545;-49
2023/09/04 07:06:00;;;;;;;11.73;8.07;;;;;;;;;;5049534;28;20174;-52
2023/09/04 07:08:30;;;;;;;13.83;7.77;;;;;;;;;;5051198;28;20196;-52
2023/09/04 07:10:56;;;;;;;12.27;8.50;;;;;;;;;;5050440;28;20275;-52
2023/09/04 07:13:22;;;;;;;12.80;7.17;;;;;;;;;;5069341;28;20206;-48
2023/09/04 07:15:48;;;;;;;10.33;6.53;;;;;;;;;;5070781;28;20669;-49
2023/09/04 07:18:14;;;;;;;12.20;7.77;;;;;;;;;;5050645;28;20551;-47
2023/09/04 07:20:40;;;;;;;7.60;6.10;;;;;;;;;;5068829;28;20173;-50
2023/09/04 07:23:06;;;;;;;11.80;8.30;;;;;;;;;;5067247;28;20195;-52
2023/09/04 07:25:32;;;;;;;11.53;8.00;;;;;;;;;;5050500;28;20259;-50
2023/09/04 07:28:00;;;;;;;13.80;6.73;;;;;;;;;;5048896;28;20473;-51
2023/09/04 07:30:26;;;;;;;20.10;8.33;;;;;;;;;;5070309;28;20639;-51
2023/09/04 07:32:51;;;;;;;15.40;7.33;;;;;;;;;;5053884;28;20165;-51
2023/09/04 07:35:17;;;;;;;13.93;8.50;;;;;;;;;;5071531;28;20192;-48
2023/09/04 07:37:45;;;;;;;14.90;8.43;;;;;;;;;;5054488;28;20172;-53
2023/09/04 07:40:11;;;;;;;14.47;8.00;;;;;;;;;;5072271;28;20190;-49
2023/09/04 07:42:39;;;;;;;12.90;8.93;;;;;;;;;;5054684;28;20272;-49
2023/09/04 07:45:06;;;;;;;14.20;7.87;;;;;;;;;;5054965;28;20183;-50
2023/09/04 07:47:32;;;;;;;9.03;6.63;;;;;;;;;;5053660;28;20272;-49
2023/09/04 07:49:58;;;;;;;9.13;7.27;;;;;;;;;;5071478;28;20315;-52
2023/09/04 07:52:24;;;;;;;15.90;6.50;;;;;;;;;;5054803;28;20199;-48
2023/09/04 07:54:50;;;;;;;6.43;4.80;;;;;;;;;;5053284;28;20208;-54
2023/09/04 07:57:16;;;;;;;12.03;6.73;;;;;;;;;;5053576;28;20444;-47
2023/09/04 07:59:42;;;;;;;13.40;6.90;;;;;;;;;;5054773;28;20176;-50
2023/09/04 08:02:08;;;;;;;13.70;8.50;;;;;;;;;;5054711;28;20566;-48
2023/09/04 08:04:34;;;;;;;15.27;7.53;;;;;;;;;;5054123;28;20179;-47
2023/09/04 08:07:01;;;;;;;7.87;5.43;;;;;;;;;;5055286;28;20173;-51
2023/09/04 08:09:27;;;;;;;7.07;5.63;;;;;;;;;;5054637;28;20204;-48
2023/09/04 08:11:53;;;;;;;7.07;4.60;;;;;;;;;;5072737;28;20161;-50
2023/09/04 08:14:19;;;;;;;13.57;5.70;;;;;;;;;;5066320;28;20209;-52
2023/09/04 08:16:45;;;;;;;10.73;4.93;;;;;;;;;;5047917;28;20186;-52
2023/09/04 08:19:11;;;;;;;8.50;4.87;;;;;;;;;;5053604;28;20177;-49
2023/09/04 08:21:37;;;;;;;6.83;4.13;;;;;;;;;;5055584;28;20172;-51
2023/09/04 08:24:03;;;;;;;6.50;3.60;;;;;;;;;;5074096;28;20303;-51
2023/09/04 08:26:30;;;;;;;5.47;3.63;;;;;;;;;;5055507;28;20176;-48
2023/09/04 08:28:57;;;;;;;4.57;3.30;;;;;;;;;;5055049;28;20295;-49
2023/09/04 08:31:23;;;;;;;5.27;4.20;;;;;;;;;;5053697;28;20224;-50
2023/09/04 08:33:50;;;;;;;5.67;3.33;;;;;;;;;;5055891;28;20169;-51
2023/09/04 08:36:16;;;;;;;6.20;3.37;;;;;;;;;;5056219;28;20183;-53
2023/09/04 08:38:43;;;;;;;9.03;4.50;;;;;;;;;;5054615;28;20168;-51
2023/09/04 08:41:10;;;;;;;11.03;5.20;;;;;;;;;;5054028;28;20267;-47
2023/09/04 08:43:38;;;;;;;5.93;4.07;;;;;;;;;;5053654;28;20181;-53
2023/09/04 08:46:06;;;;;;;5.60;3.13;;;;;;;;;;5053509;28;20661;-48
2023/09/04 08:48:34;;;;;;;5.80;4.60;;;;;;;;;;5053568;28;20169;-49
2023/09/04 08:51:00;;;;;;;12.87;5.20;;;;;;;;;;5036533;28;20188;-49
2023/09/04 08:53:26;;;;;;;11.93;5.17;;;;;;;;;;5070591;28;20157;-50
2023/09/04 08:55:54;;;;;;;7.77;5.00;;;;;;;;;;5069027;28;20692;-48
2023/09/04 08:58:20;;;;;;;6.50;3.87;;;;;;;;;;5050873;28;20179;-51
2023/09/04 09:00:49;;;;;;;4.03;2.97;;;;;;;;;;5033530;28;20363;-49
2023/09/04 09:03:17;;;;;;;3.60;2.70;;;;;;;;;;5048129;28;20188;-51
2023/09/04 09:05:44;;;;;;;5.33;2.70;;;;;;;;;;5049983;28;20168;-53
2023/09/04 09:08:10;;;;;;;5.70;2.50;;;;;;;;;;5048735;28;20173;-49
2023/09/04 09:10:37;;;;;;;2.60;2.30;;;;;;;;;;5067598;28;20200;-52
2023/09/04 09:13:03;;;;;;;2.97;2.17;;;;;;;;;;5052427;28;20272;-51
2023/09/04 09:15:31;;;;;;;5.03;2.10;;;;;;;;;;5052159;28;20192;-48
2023/09/04 09:17:58;;;;;;;3.23;1.70;;;;;;;;;;5071136;28;20200;-49
2023/09/04 09:20:31;;;;;;;3.97;1.93;;;;;;;;;;5053639;28;20176;-49
2023/09/04 09:22:58;;;;;;;6.40;2.07;;;;;;;;;;5053322;28;20176;-53
2023/09/04 09:25:27;;;;;;;3.50;1.70;;;;;;;;;;5053405;28;20676;-50
2023/09/04 09:27:57;;;;;;;4.50;2.50;;;;;;;;;;5054714;28;20203;-49
2023/09/04 09:30:23;;;;;;;2.60;2.00;;;;;;;;;;5037178;28;20251;-49
2023/09/04 09:32:54;;;;;;;4.30;2.60;;;;;;;;;;5052826;28;20168;-49
2023/09/04 09:35:23;;;;;;;4.90;2.40;;;;;;;;;;5053827;28;20175;-48
2023/09/04 09:37:49;;;;;;;3.33;2.17;;;;;;;;;;5071505;28;20173;-49
2023/09/04 09:40:16;;;;;;;7.07;3.47;;;;;;;;;;5053133;28;20214;-49
2023/09/04 09:42:42;;;;;;;5.97;3.23;;;;;;;;;;5069731;28;20563;-50
2023/09/04 09:45:08;;;;;;;7.37;2.70;;;;;;;;;;5054220;28;20275;-49
2023/09/04 09:47:35;;;;;;;6.57;3.70;;;;;;;;;;5052421;28;20267;-51
2023/09/04 09:50:04;;;;;;;7.20;3.37;;;;;;;;;;5053860;28;20244;-47
2023/09/04 09:52:29;;;;;;;6.57;2.60;;;;;;;;;;5069285;28;20524;-50
2023/09/04 09:54:57;;;;;;;7.17;2.90;;;;;;;;;;5049003;28;20743;-48
2023/09/04 09:57:25;;;;;;;3.37;2.40;;;;;;;;;;5050365;28;20225;-52
2023/09/04 09:59:54;;;;;;;3.23;2.03;;;;;;;;;;5050017;28;20679;-53
2023/09/04 10:02:23;;;;;;;3.83;2.00;;;;;;;;;;5065655;28;20225;-49
2023/09/04 10:04:50;;;;;;;6.20;1.87;;;;;;;;;;5047908;28;20172;-47
2023/09/04 10:07:21;;;;;;;3.87;1.60;;;;;;;;;;5065913;28;20264;-50
2023/09/04 10:09:52;;;;;;;3.43;1.30;;;;;;;;;;5048602;28;20210;-47
2023/09/04 10:12:24;;;;;;;3.23;1.70;;;;;;;;;;5048577;28;20702;-49
2023/09/04 10:14:53;;;;;;;4.37;2.20;;;;;;;;;;5048628;28;20264;-50
2023/09/04 10:17:21;;;;;;;5.17;1.73;;;;;;;;;;5048229;28;20169;-50
2023/09/04 10:19:48;;;;;;;4.53;1.67;;;;;;;;;;5049381;28;20181;-50
2023/09/04 10:22:37;;;;;;;3.70;2.17;;;;;;;;;;5050016;28;20738;-51
2023/09/04 10:25:27;;;;;;;3.90;2.00;;;;;;;;;;5068977;28;20447;-53
2023/09/04 10:28:18;;;;;;;5.00;1.73;;;;;;;;;;5051403;28;20280;-50
2023/09/04 10:30:49;;;;;;;1.70;1.40;;;;;;;;;;5047826;28;20232;-48
2023/09/04 10:33:16;;;;;;;2.77;1.70;;;;;;;;;;5069360;28;20185;-49
2023/09/04 10:35:44;;;;;;;2.03;1.43;;;;;;;;;;5069511;28;20176;-50
2023/09/04 10:38:11;;;;;;;1.23;1.10;;;;;;;;;;5068618;28;20271;-52
2023/09/04 10:40:39;;;;;;;1.93;1.20;;;;;;;;;;5067546;28;20168;-50
2023/09/04 10:43:07;;;;;;;4.23;1.50;;;;;;;;;;5068319;28;20592;-47
2023/09/04 10:45:34;;;;;;;2.50;1.47;;;;;;;;;;5067759;28;20270;-50
2023/09/04 10:48:01;;;;;;;1.93;1.40;;;;;;;;;;5067621;28;20176;-54
2023/09/04 10:50:30;;;;;;;1.67;1.13;;;;;;;;;;5067417;28;20232;-50
2023/09/04 10:52:58;;;;;;;2.40;1.50;;;;;;;;;;5068440;28;20564;-50
2023/09/04 10:55:25;;;;;;;2.33;1.57;;;;;;;;;;5065300;28;20165;-47
2023/09/04 10:58:04;;;;;;;3.07;1.93;;;;;;;;;;5068119;28;20645;-49
2023/09/04 11:00:40;;;;;;;3.97;2.50;;;;;;;;;;5067053;28;20219;-52
2023/09/04 11:03:18;;;;;;;2.47;1.50;;;;;;;;;;5066560;28;20172;-47
2023/09/04 11:06:05;;;;;;;5.95;1.85;;;;;;;;;;5067027;28;20253;-49
2023/09/04 11:08:33;;;;;;;5.10;1.83;;;;;;;;;;5067511;28;20271;-52
2023/09/04 11:11:03;;;;;;;3.20;1.48;;;;;;;;;;5050516;28;20205;-48
2023/09/04 11:13:34;;;;;;;2.25;1.60;;;;;;;;;;5065007;28;20179;-51
2023/09/04 11:16:04;;;;;;;5.53;1.55;;;;;;;;;;5066734;28;20681;-54
2023/09/04 11:18:32;;;;;;;2.53;1.17;;;;;;;;;;5067471;28;20251;-52
2023/09/04 11:20:59;;;;;;;2.88;1.30;;;;;;;;;;5066535;28;20255;-55
2023/09/04 11:23:26;;;;;;;2.58;1.15;;;;;;;;;;5065615;28;20161;-52
2023/09/04 11:25:53;;;;;;;2.35;1.10;;;;;;;;;;5067552;28;20164;-52
2023/09/04 11:28:23;;;;;;;2.97;2.00;;;;;;;;;;5067157;28;20196;-52
2023/09/04 11:30:54;;;;;;;1.48;1.10;;;;;;;;;;5056352;28;20232;-49
2023/09/04 11:33:22;;;;;;;1.60;1.05;;;;;;;;;;5049537;28;20525;-50
2023/09/04 11:36:07;;;;;;;2.03;1.20;;;;;;;;;;5066395;28;20177;-49
2023/09/04 11:38:33;;;;;;;1.55;1.10;;;;;;;;;;5050069;28;20169;-54
2023/09/04 11:41:21;;;;;;;2.05;1.20;;;;;;;;;;5067545;28;20176;-50
2023/09/04 11:43:48;;;;;;;1.20;1.10;;;;;;;;;;5050502;28;20172;-53
2023/09/04 11:46:16;;;;;;;3.58;0.80;;;;;;;;;;5066227;28;20172;-52
2023/09/04 11:48:43;;;;;;;1.40;1.30;;;;;;;;;;5065808;28;20169;-51
2023/09/04 11:51:10;;;;;;;2.05;1.15;;;;;;;;;;5067000;28;20340;-52
2023/09/04 11:53:38;;;;;;;2.20;1.20;;;;;;;;;;5050164;28;20165;-52
2023/09/04 11:56:04;;;;;;;2.60;0.90;;;;;;;;;;5050437;28;20169;-51
2023/09/04 11:58:30;;;;;;;1.15;0.95;;;;;;;;;;5068407;28;20594;-51
2023/09/04 12:00:57;;;;;;;1.92;1.27;;;;;;;;;;5051809;28;20231;-51
2023/09/04 12:03:23;;;;;;;1.23;0.90;;;;;;;;;;5035203;28;20459;-52
2023/09/04 12:05:51;;;;;;;1.23;1.02;;;;;;;;;;5068605;28;20161;-53
2023/09/04 12:08:19;;;;;;;1.27;1.02;;;;;;;;;;5066807;28;20250;-50
2023/09/04 12:10:46;;;;;;;1.73;1.10;;;;;;;;;;5049244;28;20205;-52
2023/09/04 12:13:13;;;;;;;1.13;1.00;;;;;;;;;;5066554;28;20165;-52
2023/09/04 12:15:41;;;;;;;1.17;0.95;;;;;;;;;;5049162;28;20245;-48
2023/09/04 12:18:08;;;;;;;2.00;1.10;;;;;;;;;;5050835;28;20156;-48
2023/09/04 12:20:34;;;;;;;1.20;1.00;;;;;;;;;;5067508;28;20228;-54
2023/09/04 12:23:02;;;;;;;1.77;1.30;;;;;;;;;;5048583;28;20195;-53
2023/09/04 12:25:35;;;;;;;1.35;1.15;;;;;;;;;;5047156;28;20249;-48
2023/09/04 12:28:03;;;;;;;2.03;0.98;;;;;;;;;;5046691;28;20165;-51
2023/09/04 12:30:29;;;;;;;3.42;1.35;;;;;;;;;;5030915;28;20901;-51
2023/09/04 12:32:58;;;;;;;2.08;1.13;;;;;;;;;;5064366;28;20177;-48
2023/09/04 12:35:25;;;;;;;1.77;1.05;;;;;;;;;;5028330;28;20170;-51
2023/09/04 12:37:55;;;;;;;1.50;1.10;;;;;;;;;;5030995;28;20180;-48
2023/09/04 12:40:22;;;;;;;2.20;1.20;;;;;;;;;;5030392;28;20687;-50
2023/09/04 12:42:48;;;;;;;1.20;1.10;;;;;;;;;;5031243;28;20185;-48
2023/09/04 12:45:15;;;;;;;1.30;0.90;;;;;;;;;;5031036;28;20177;-48
2023/09/04 12:47:41;;;;;;;1.83;1.10;;;;;;;;;;5049500;28;20174;-52
2023/09/04 12:50:09;;;;;;;1.20;1.10;;;;;;;;;;5050149;28;20532;-52
2023/09/04 12:52:40;;;;;;;1.38;1.10;;;;;;;;;;5067464;28;20238;-51
2023/09/04 12:55:06;;;;;;;2.45;1.20;;;;;;;;;;5068310;28;20172;-50
2023/09/04 12:57:33;;;;;;;2.03;1.40;;;;;;;;;;5069703;28;20259;-50
2023/09/04 12:59:59;;;;;;;3.00;1.10;;;;;;;;;;5068415;28;20192;-48
2023/09/04 13:02:27;;;;;;;5.97;3.17;;;;;;;;;;5067362;28;20180;-53
2023/09/04 13:04:52;;;;;;;1.13;0.93;;;;;;;;;;5070069;28;20188;-49
2023/09/04 13:07:18;;;;;;;3.78;1.27;;;;;;;;;;5068320;28;20184;-49
2023/09/04 13:09:44;;;;;;;2.00;1.40;;;;;;;;;;5072072;28;20204;-51
2023/09/04 13:12:12;;;;;;;2.63;1.55;;;;;;;;;;5069722;28;20180;-49
2023/09/04 13:14:39;;;;;;;2.13;1.25;;;;;;;;;;5068844;28;20177;-50
2023/09/04 13:17:06;;;;;;;1.80;1.27;;;;;;;;;;5067408;28;20185;-50
2023/09/04 13:19:32;;;;;;;0.70;0.70;;;;;;;;;;5067410;28;20691;-52
2023/09/04 13:21:58;;;;;;;1.42;0.98;;;;;;;;;;5067571;28;20294;-53
2023/09/04 13:24:24;;;;;;;1.52;0.90;;;;;;;;;;5065513;28;20172;-54
2023/09/04 13:26:50;;;;;;;0.88;0.73;;;;;;;;;;5063531;28;20246;-51
2023/09/04 13:29:17;;;;;;;1.98;0.73;;;;;;;;;;5065252;28;20800;-49
2023/09/04 13:31:43;;;;;;;3.10;0.88;;;;;;;;;;5064553;28;20607;-54
2023/09/04 13:34:09;;;;;;;2.75;0.93;;;;;;;;;;5065826;28;20161;-51
2023/09/04 13:36:35;;;;;;;2.45;1.00;;;;;;;;;;5066431;28;20220;-50
2023/09/04 13:39:01;;;;;;;1.60;0.95;;;;;;;;;;5066525;28;20273;-55
2023/09/04 13:41:28;;;;;;;1.65;1.10;;;;;;;;;;5064262;28;20172;-51
2023/09/04 13:43:55;;;;;;;1.20;0.90;;;;;;;;;;5064038;28;20854;-51
2023/09/04 13:46:22;;;;;;;0.90;0.90;;;;;;;;;;5065596;28;20169;-50
2023/09/04 13:48:48;;;;;;;1.20;1.10;;;;;;;;;;5064865;28;20157;-54
2023/09/04 13:51:14;;;;;;;1.30;1.20;;;;;;;;;;5065970;28;20552;-52
2023/09/04 13:53:43;;;;;;;4.80;1.35;;;;;;;;;;5065865;28;20165;-55
2023/09/04 13:56:10;;;;;;;0.90;0.90;;;;;;;;;;5067833;28;20684;-51
2023/09/04 13:58:36;;;;;;;0.85;0.80;;;;;;;;;;5069573;28;20462;-52
2023/09/04 14:01:02;;;;;;;2.95;0.95;;;;;;;;;;5068473;28;20225;-55
2023/09/04 14:03:28;;;;;;;1.45;1.00;;;;;;;;;;5066993;28;20238;-53
2023/09/04 14:05:54;;;;;;;1.10;0.93;;;;;;;;;;5067321;28;20525;-52
2023/09/04 14:08:20;;;;;;;2.95;1.10;;;;;;;;;;5068499;28;20164;-54
2023/09/04 14:10:47;;;;;;;3.60;1.23;;;;;;;;;;5067560;28;20203;-52
2023/09/04 14:13:16;;;;;;;1.95;1.02;;;;;;;;;;5068033;28;20259;-51
2023/09/04 14:15:42;;;;;;;2.85;1.00;;;;;;;;;;5067565;28;20176;-50
2023/09/04 14:18:08;;;;;;;1.17;1.02;;;;;;;;;;5066426;28;20188;-49
2023/09/04 14:20:35;;;;;;;1.58;1.00;;;;;;;;;;5065656;28;20164;-50
2023/09/04 14:23:01;;;;;;;2.53;1.02;;;;;;;;;;5065983;28;20181;-50
2023/09/04 14:25:28;;;;;;;2.67;1.00;;;;;;;;;;5063765;28;20169;-48
2023/09/04 14:27:55;;;;;;;1.30;1.20;;;;;;;;;;5061791;28;20469;-52
2023/09/04 14:30:24;;;;;;;4.88;1.48;;;;;;;;;;5061961;28;20200;-49
2023/09/04 14:32:51;;;;;;;1.35;0.90;;;;;;;;;;5062857;28;20471;-54
2023/09/04 14:35:17;;;;;;;5.93;1.27;;;;;;;;;;5061021;28;20161;-51
2023/09/04 14:37:43;;;;;;;0.82;0.82;;;;;;;;;;5062282;28;20725;-50
2023/09/04 14:40:12;;;;;;;2.05;1.10;;;;;;;;;;5061460;28;20180;-53